EPMO

Modlin Airport

Warsaw, Poland
METAR EPMO 201500Z 08011KT CAVOK 01/M07 Q1021
Observed Flight Rules
Feb-20 @ 15:00 UTC (2 hours ago) Visual Flight Rules
Wind Visibility Clouds
80° at 11 knots 10,000+ meters
  • Clear skies
Temperatures Readings
Current 1°C / 34°F
Dewpoint -7°C / 19°F
Humidity 56%
Altimeter 30.15" Hg
Pressure 1021 hPa
Elevation 104
METAR EPMO 201500Z 08011KT CAVOK 01/M07 Q1021
Observed Flight Rules
Feb-20 @ 15:00 UTC
(2 hours ago)
VFR
Wind Visibility
80° at 11 knots 10,000+ meters
Clouds
  • Clear skies
Temperature Dewpoint
1°C / 34°F -7°C / 19°F
Humidity Altimeter Pressure
56% 30.15" Hg 1021 hPa